Time;durP1;ratioP1;P1;durP2;ratioP2;P2;SDS_P1;SDS_P2;PMS_P1;PMS_P2;Temp;Humidity;BMP_temperature;BMP_pressure;BME280_temperature;BME280_humidity;BME280_pressure;Samples;Min_cycle;Max_cycle;Signal;HPM_P1;HPM_P2
2022/11/18 00:00:01;;;;;;;;;;;2.30;99.90;;;;;;2603241;54;19961;31
2022/11/18 00:02:37;;;;;;;;;;;2.30;99.90;;;;;;2603382;54;20718;31
2022/11/18 00:05:11;;;;;;;;;;;2.30;99.90;;;;;;2603309;54;20770;31
2022/11/18 00:07:45;;;;;;;;;;;2.20;99.90;;;;;;2603296;54;19941;31
2022/11/18 00:10:19;;;;;;;;;;;2.30;99.90;;;;;;2603220;54;19961;31
2022/11/18 00:15:42;;;;;;;;;;;2.20;99.90;;;;;;2621960;47;19934;31
2022/11/18 00:18:16;;;;;;;;;;;3.30;99.90;;;;;;2603253;54;20702;31
2022/11/18 00:20:50;;;;;;;;;;;2.20;99.90;;;;;;2621574;47;20054;31
2022/11/18 00:23:24;;;;;;;;;;;2.10;99.90;;;;;;2621791;47;19934;31
2022/11/18 00:26:02;;;;;;;;;;;2.10;99.90;;;;;;2603203;54;19989;31
2022/11/18 00:28:39;;;;;;;;;;;2.10;99.90;;;;;;2604139;54;20739;31
2022/11/18 00:31:13;;;;;;;;;;;2.10;99.90;;;;;;2622449;46;19941;31
2022/11/18 00:33:47;;;;;;;;;;;2.10;99.90;;;;;;2604154;54;20069;31
2022/11/18 00:36:19;;;;;;;;;;;2.10;99.90;;;;;;2622608;46;19934;31
2022/11/18 00:38:51;;;;;;;;;;;2.10;99.90;;;;;;2603701;54;19938;31
2022/11/18 00:42:49;;;;;;;;;;;2.10;99.90;;;;;;2604178;54;19940;31
2022/11/18 00:44:20;;;;;;;;;;;2.10;99.90;;;;;;2604347;54;20484;31
2022/11/18 00:46:53;;;;;;;;;;;2.10;99.90;;;;;;2622443;46;19934;31
2022/11/18 00:49:27;;;;;;;;;;;2.00;99.90;;;;;;2622444;46;20013;31
2022/11/18 00:52:01;;;;;;;;;;;2.00;99.90;;;;;;2622071;46;20804;31
2022/11/18 00:54:35;;;;;;;;;;;2.00;99.90;;;;;;2622295;46;19938;31
2022/11/18 00:57:09;;;;;;;;;;;2.00;99.90;;;;;;2603819;54;20016;31
2022/11/18 00:59:46;;;;;;;;;;;1.90;99.90;;;;;;2622403;46;20465;31
2022/11/18 01:02:19;;;;;;;;;;;1.90;99.90;;;;;;2604130;54;19938;31
2022/11/18 01:04:53;;;;;;;;;;;1.90;99.90;;;;;;2603734;54;19935;31
2022/11/18 01:07:25;;;;;;;;;;;1.80;99.90;;;;;;2603996;54;20885;31
2022/11/18 01:09:59;;;;;;;;;;;1.80;99.90;;;;;;2603917;54;20749;31
2022/11/18 01:15:29;;;;;;;;;;;1.80;99.90;;;;;;2604151;54;20029;31
2022/11/18 01:18:02;;;;;;;;;;;1.80;99.90;;;;;;2604105;54;19935;31
2022/11/18 01:20:34;;;;;;;;;;;1.80;99.90;;;;;;2603702;54;19935;31
2022/11/18 01:23:08;;;;;;;;;;;1.80;99.90;;;;;;2603681;54;19999;31
2022/11/18 01:25:43;;;;;;;;;;;1.80;99.90;;;;;;2622333;46;19940;31
2022/11/18 01:28:16;;;;;;;;;;;1.80;99.90;;;;;;2603929;54;20732;31
2022/11/18 01:31:00;;;;;;;;;;;1.90;99.90;;;;;;2603676;54;20771;31
2022/11/18 01:33:34;;;;;;;;;;;1.80;99.90;;;;;;2721007;39;20455;31
2022/11/18 01:36:15;;;;;;;;;;;1.80;99.90;;;;;;2603866;54;19958;31
2022/11/18 01:38:49;;;;;;;;;;;1.80;99.90;;;;;;2603547;54;20757;31
2022/11/18 01:41:24;;;;;;;;;;;1.80;99.90;;;;;;2622256;46;20025;31
2022/11/18 01:43:58;;;;;;;;;;;1.80;99.90;;;;;;2603730;54;19946;31
2022/11/18 01:46:34;;;;;;;;;;;1.80;99.90;;;;;;2603948;54;20600;31
2022/11/18 01:49:09;;;;;;;;;;;1.70;99.90;;;;;;2603864;54;20002;31
2022/11/18 01:51:45;;;;;;;;;;;1.80;99.90;;;;;;2603697;54;19934;31
2022/11/18 01:54:20;;;;;;;;;;;1.70;99.90;;;;;;2603614;54;20795;31
2022/11/18 01:56:54;;;;;;;;;;;1.70;99.90;;;;;;2603930;54;19941;31
2022/11/18 01:59:27;;;;;;;;;;;1.70;99.90;;;;;;2603970;54;19934;31
2022/11/18 02:02:04;;;;;;;;;;;1.70;99.90;;;;;;2622103;46;19934;31
2022/11/18 02:04:38;;;;;;;;;;;1.70;99.90;;;;;;2622339;46;20823;31
2022/11/18 02:07:12;;;;;;;;;;;1.70;99.90;;;;;;2603992;54;19990;31
2022/11/18 02:09:46;;;;;;;;;;;1.60;99.90;;;;;;2622293;46;19942;31
2022/11/18 02:12:20;;;;;;;;;;;1.60;99.90;;;;;;2622333;46;19946;31
2022/11/18 02:14:54;;;;;;;;;;;1.60;99.90;;;;;;2622250;46;20853;31
2022/11/18 02:17:34;;;;;;;;;;;1.50;99.90;;;;;;2603926;54;20715;31
2022/11/18 02:20:13;;;;;;;;;;;1.60;99.90;;;;;;2603872;54;20742;31
2022/11/18 02:22:47;;;;;;;;;;;1.50;99.90;;;;;;2622372;46;19934;31
2022/11/18 02:25:22;;;;;;;;;;;1.60;99.90;;;;;;2603984;54;19941;31
2022/11/18 02:28:07;;;;;;;;;;;1.50;99.90;;;;;;2622181;46;19935;31
2022/11/18 02:30:44;;;;;;;;;;;1.60;99.90;;;;;;2622068;46;19943;31
2022/11/18 02:33:17;;;;;;;;;;;1.50;99.90;;;;;;2603872;54;19945;31
2022/11/18 02:35:53;;;;;;;;;;;1.50;99.90;;;;;;2603461;54;20853;31
2022/11/18 02:38:28;;;;;;;;;;;1.50;99.90;;;;;;2603732;54;19993;31
2022/11/18 02:41:02;;;;;;;;;;;1.50;99.90;;;;;;2622086;46;20793;31
2022/11/18 02:43:37;;;;;;;;;;;1.60;99.90;;;;;;2603747;54;19989;31
2022/11/18 02:46:13;;;;;;;;;;;1.60;99.90;;;;;;2603800;54;19941;31
2022/11/18 02:48:46;;;;;;;;;;;1.60;99.90;;;;;;2603766;54;19960;31
2022/11/18 02:51:22;;;;;;;;;;;1.60;99.90;;;;;;2603785;54;20735;31
2022/11/18 02:53:56;;;;;;;;;;;1.50;99.90;;;;;;2622190;46;19941;31
2022/11/18 02:56:30;;;;;;;;;;;1.80;99.90;;;;;;2603769;54;19934;31
2022/11/18 02:59:02;;;;;;;;;;;1.50;99.90;;;;;;2622025;46;20511;31
2022/11/18 03:01:39;;;;;;;;;;;1.60;99.90;;;;;;2622232;46;20788;31
2022/11/18 03:04:12;;;;;;;;;;;1.50;99.90;;;;;;2622104;46;20812;31
2022/11/18 03:06:47;;;;;;;;;;;1.60;99.90;;;;;;2603518;54;19934;31
2022/11/18 03:09:22;;;;;;;;;;;1.60;99.90;;;;;;2603457;54;20705;31
2022/11/18 03:11:56;;;;;;;;;;;1.50;99.90;;;;;;2603691;54;19960;31
2022/11/18 03:14:30;;;;;;;;;;;1.60;99.90;;;;;;2621881;46;19935;31
2022/11/18 03:17:05;;;;;;;;;;;1.60;99.90;;;;;;2621864;46;19942;31
2022/11/18 03:19:44;;;;;;;;;;;1.60;99.90;;;;;;2603447;54;20784;31
2022/11/18 03:22:18;;;;;;;;;;;1.50;99.90;;;;;;2603666;54;19942;31
2022/11/18 03:24:52;;;;;;;;;;;1.50;99.90;;;;;;2603487;54;19934;31
2022/11/18 03:27:28;;;;;;;;;;;1.60;99.90;;;;;;2603673;54;19934;31
2022/11/18 03:30:03;;;;;;;;;;;1.60;99.90;;;;;;2603411;54;19993;31
2022/11/18 03:32:38;;;;;;;;;;;1.60;99.90;;;;;;2603408;54;20730;31
2022/11/18 03:35:13;;;;;;;;;;;1.60;99.90;;;;;;2603393;54;20745;31
2022/11/18 03:37:49;;;;;;;;;;;1.50;99.90;;;;;;2621939;46;20022;31
2022/11/18 03:40:23;;;;;;;;;;;1.60;99.90;;;;;;2603258;54;20861;31
2022/11/18 03:42:58;;;;;;;;;;;1.50;99.90;;;;;;2603203;54;20856;31
2022/11/18 03:45:32;;;;;;;;;;;1.50;99.90;;;;;;2603314;54;19989;31
2022/11/18 03:48:10;;;;;;;;;;;1.50;99.90;;;;;;2603147;54;19935;31
2022/11/18 03:50:43;;;;;;;;;;;2.60;99.90;;;;;;2603287;54;20799;31
2022/11/18 03:53:17;;;;;;;;;;;1.40;99.90;;;;;;2622047;47;19934;31
2022/11/18 03:55:52;;;;;;;;;;;1.40;99.90;;;;;;2603171;54;20799;31
2022/11/18 03:58:27;;;;;;;;;;;1.40;99.90;;;;;;2621936;47;20014;31
2022/11/18 04:01:07;;;;;;;;;;;1.40;99.90;;;;;;2603352;54;19934;31
2022/11/18 04:03:43;;;;;;;;;;;1.40;99.90;;;;;;2604338;54;19934;31
2022/11/18 04:06:18;;;;;;;;;;;1.40;99.90;;;;;;2604354;54;19977;31
2022/11/18 04:08:52;;;;;;;;;;;1.40;99.90;;;;;;2622795;46;19942;31
2022/11/18 04:14:10;;;;;;;;;;;1.30;99.90;;;;;;2604097;54;20670;31
2022/11/18 04:16:44;;;;;;;;;;;1.30;99.90;;;;;;2622511;46;19993;31
2022/11/18 04:19:21;;;;;;;;;;;1.30;99.90;;;;;;2604126;54;19942;31
2022/11/18 04:21:55;;;;;;;;;;;1.30;99.90;;;;;;2608774;46;19940;31
2022/11/18 04:24:29;;;;;;;;;;;1.30;99.90;;;;;;2622495;46;19938;31
2022/11/18 04:27:04;;;;;;;;;;;1.20;99.90;;;;;;2604139;54;19946;31
2022/11/18 04:29:37;;;;;;;;;;;1.20;99.90;;;;;;2622676;46;20754;31
2022/11/18 04:32:11;;;;;;;;;;;1.30;99.90;;;;;;2774066;31;21423;31
2022/11/18 04:34:48;;;;;;;;;;;1.20;99.90;;;;;;2622475;46;19935;31
2022/11/18 04:37:21;;;;;;;;;;;1.20;99.90;;;;;;2603966;54;19961;31
2022/11/18 04:39:55;;;;;;;;;;;1.20;99.90;;;;;;2622766;46;20012;31
2022/11/18 04:42:29;;;;;;;;;;;1.20;99.90;;;;;;2604187;54;19989;31
2022/11/18 04:45:03;;;;;;;;;;;1.20;99.90;;;;;;2604125;54;20760;31
2022/11/18 04:47:37;;;;;;;;;;;1.20;99.90;;;;;;2622401;46;19946;31
2022/11/18 04:50:14;;;;;;;;;;;1.20;99.90;;;;;;2603774;54;20797;31
2022/11/18 04:52:47;;;;;;;;;;;1.10;99.90;;;;;;2604087;54;20750;31
2022/11/18 04:55:21;;;;;;;;;;;1.10;99.90;;;;;;2622607;46;20773;31
2022/11/18 04:57:55;;;;;;;;;;;1.10;99.90;;;;;;2622402;46;19940;31
2022/11/18 05:00:29;;;;;;;;;;;1.00;99.90;;;;;;2622267;46;20013;31
2022/11/18 05:03:03;;;;;;;;;;;1.00;99.90;;;;;;2604076;54;19942;31
2022/11/18 05:05:40;;;;;;;;;;;1.00;99.90;;;;;;2622520;46;19938;31
2022/11/18 05:08:13;;;;;;;;;;;1.00;99.90;;;;;;2603266;54;20796;31
2022/11/18 05:10:47;;;;;;;;;;;1.00;99.90;;;;;;2603917;54;19987;31
2022/11/18 05:13:18;;;;;;;;;;;1.00;99.90;;;;;;2603458;54;19939;31
2022/11/18 05:15:52;;;;;;;;;;;1.00;99.90;;;;;;2603782;54;19946;31
2022/11/18 05:18:26;;;;;;;;;;;1.00;99.90;;;;;;2603922;54;20803;31
2022/11/18 05:21:06;;;;;;;;;;;0.90;99.90;;;;;;2604201;54;20752;31
2022/11/18 05:23:39;;;;;;;;;;;0.90;99.90;;;;;;2604142;54;19939;31
2022/11/18 05:26:11;;;;;;;;;;;0.90;99.90;;;;;;2622124;46;20788;31
2022/11/18 05:28:45;;;;;;;;;;;0.90;99.90;;;;;;2622562;46;19935;31
2022/11/18 05:31:19;;;;;;;;;;;0.90;99.90;;;;;;2622602;46;19938;31
2022/11/18 05:33:53;;;;;;;;;;;0.80;99.90;;;;;;2603790;54;19946;31
2022/11/18 05:36:30;;;;;;;;;;;0.80;99.90;;;;;;2720843;39;20462;31
2022/11/18 05:44:20;;;;;;;;;;;0.80;99.90;;;;;;2603799;54;20733;31
2022/11/18 05:46:55;;;;;;;;;;;0.70;99.90;;;;;;2622220;46;19985;31
2022/11/18 05:49:27;;;;;;;;;;;0.70;99.90;;;;;;2603937;54;19935;31
2022/11/18 05:52:04;;;;;;;;;;;0.70;99.90;;;;;;2603550;54;20779;31
2022/11/18 05:54:39;;;;;;;;;;;0.70;99.90;;;;;;2603915;54;20791;31
2022/11/18 05:57:13;;;;;;;;;;;0.70;99.90;;;;;;2622056;46;19998;31
2022/11/18 05:59:48;;;;;;;;;;;0.70;99.90;;;;;;2603636;54;20026;31
2022/11/18 06:02:22;;;;;;;;;;;0.70;99.90;;;;;;2622073;46;19958;31
2022/11/18 06:04:58;;;;;;;;;;;0.70;99.90;;;;;;2622290;46;20789;31
2022/11/18 06:07:36;;;;;;;;;;;0.70;99.90;;;;;;2717177;39;20475;31
2022/11/18 06:10:09;;;;;;;;;;;0.60;99.90;;;;;;2621905;46;20804;31
2022/11/18 06:12:46;;;;;;;;;;;0.60;99.90;;;;;;2622054;46;19942;31
2022/11/18 06:15:21;;;;;;;;;;;0.60;99.90;;;;;;2622276;46;20497;31
2022/11/18 06:17:58;;;;;;;;;;;0.60;99.90;;;;;;2603478;54;19993;31
2022/11/18 06:20:34;;;;;;;;;;;0.60;99.90;;;;;;2603476;54;20583;31
2022/11/18 06:23:19;;;;;;;;;;;0.60;99.90;;;;;;2702283;39;20294;31
2022/11/18 06:28:24;;;;;;;;;;;0.50;99.90;;;;;;2603777;54;19961;31
2022/11/18 06:31:01;;;;;;;;;;;0.50;99.90;;;;;;2602689;54;19941;31
2022/11/18 06:33:36;;;;;;;;;;;0.50;99.90;;;;;;2602774;54;19942;31
2022/11/18 06:36:11;;;;;;;;;;;0.50;99.90;;;;;;2603768;54;20500;31
2022/11/18 06:38:48;;;;;;;;;;;0.50;99.90;;;;;;2621905;46;19998;31
2022/11/18 06:41:21;;;;;;;;;;;0.40;99.90;;;;;;2603459;54;20723;31
2022/11/18 06:43:54;;;;;;;;;;;0.40;99.90;;;;;;2621882;46;19935;31
2022/11/18 06:49:14;;;;;;;;;;;0.40;99.90;;;;;;2621843;46;19940;31
2022/11/18 06:51:47;;;;;;;;;;;0.40;99.90;;;;;;2603462;54;19976;31
2022/11/18 06:54:25;;;;;;;;;;;0.40;99.90;;;;;;2603516;54;19942;31
2022/11/18 06:57:00;;;;;;;;;;;0.40;99.90;;;;;;2603639;54;20832;31
2022/11/18 06:59:34;;;;;;;;;;;0.40;99.90;;;;;;2621896;46;19993;31
2022/11/18 07:02:11;;;;;;;;;;;0.40;99.90;;;;;;2603522;54;19986;31
2022/11/18 07:04:46;;;;;;;;;;;0.40;99.90;;;;;;2603662;54;19993;31
2022/11/18 07:10:16;;;;;;;;;;;0.40;99.90;;;;;;2603630;54;19934;31
2022/11/18 07:12:51;;;;;;;;;;;0.30;99.90;;;;;;2603349;54;20751;31
2022/11/18 07:15:27;;;;;;;;;;;0.30;99.90;;;;;;2603514;54;19941;31
2022/11/18 07:18:04;;;;;;;;;;;0.30;99.90;;;;;;2603231;54;20743;31
2022/11/18 07:20:41;;;;;;;;;;;0.30;99.90;;;;;;2603460;54;20706;31
2022/11/18 07:23:18;;;;;;;;;;;0.30;99.90;;;;;;2603195;54;20815;31
2022/11/18 07:25:56;;;;;;;;;;;0.30;99.90;;;;;;2621899;46;19950;31
2022/11/18 07:28:32;;;;;;;;;;;0.30;99.90;;;;;;2603419;54;19935;31
2022/11/18 07:31:08;;;;;;;;;;;0.30;99.90;;;;;;2621970;46;20732;31
2022/11/18 07:33:44;;;;;;;;;;;0.20;99.90;;;;;;2603244;54;20742;31
2022/11/18 07:36:19;;;;;;;;;;;0.20;99.90;;;;;;2603007;54;19946;31
2022/11/18 07:38:57;;;;;;;;;;;0.10;99.90;;;;;;2621462;46;20013;31
2022/11/18 07:41:34;;;;;;;;;;;0.20;99.90;;;;;;2621480;46;20769;31
2022/11/18 07:44:12;;;;;;;;;;;0.20;99.90;;;;;;2602435;54;20005;31
2022/11/18 07:46:47;;;;;;;;;;;0.20;99.90;;;;;;2603174;54;19946;31
2022/11/18 07:49:21;;;;;;;;;;;0.20;99.90;;;;;;2603377;54;19957;31
2022/11/18 07:51:56;;;;;;;;;;;0.20;99.90;;;;;;2603199;54;19946;31
2022/11/18 07:54:33;;;;;;;;;;;0.20;99.90;;;;;;2720499;39;20493;31
2022/11/18 07:57:11;;;;;;;;;;;0.20;99.90;;;;;;2603275;54;20010;31
2022/11/18 07:59:45;;;;;;;;;;;0.20;99.90;;;;;;2603447;54;19934;31
2022/11/18 08:02:20;;;;;;;;;;;0.20;99.90;;;;;;2621907;47;19957;31
2022/11/18 08:04:57;;;;;;;;;;;0.20;99.90;;;;;;2605163;47;19942;31
2022/11/18 08:07:33;;;;;;;;;;;0.20;99.90;;;;;;2603460;54;19935;31
2022/11/18 08:10:08;;;;;;;;;;;0.10;99.90;;;;;;2602467;54;20823;31
2022/11/18 08:12:45;;;;;;;;;;;0.10;99.90;;;;;;2603126;54;19941;31
2022/11/18 08:15:23;;;;;;;;;;;0.10;99.90;;;;;;2621627;47;19935;31
2022/11/18 08:17:57;;;;;;;;;;;0.10;99.90;;;;;;2621293;47;20753;31
2022/11/18 08:20:32;;;;;;;;;;;0.10;99.90;;;;;;2604831;47;19935;31
2022/11/18 08:23:07;;;;;;;;;;;0.00;99.90;;;;;;2603046;54;19961;31
2022/11/18 08:25:42;;;;;;;;;;;0.00;99.90;;;;;;2603343;54;19934;31
2022/11/18 08:28:19;;;;;;;;;;;0.00;99.90;;;;;;2621356;47;19939;31
2022/11/18 08:30:56;;;;;;;;;;;0.00;99.90;;;;;;2603150;54;19942;31
2022/11/18 08:33:30;;;;;;;;;;;0.10;99.90;;;;;;2603193;54;20014;31
2022/11/18 08:36:07;;;;;;;;;;;0.10;99.90;;;;;;2603081;54;20763;31
2022/11/18 08:38:43;;;;;;;;;;;0.00;99.90;;;;;;2603270;54;19934;31
2022/11/18 08:41:16;;;;;;;;;;;0.10;99.90;;;;;;2621184;47;22287;31
2022/11/18 08:44:01;;;;;;;;;;;0.10;99.90;;;;;;2621483;47;20468;31
2022/11/18 08:46:37;;;;;;;;;;;0.10;99.90;;;;;;2603172;54;20709;31
2022/11/18 08:49:13;;;;;;;;;;;0.20;99.90;;;;;;2603688;54;20005;31
2022/11/18 08:51:48;;;;;;;;;;;0.10;99.90;;;;;;2603742;54;20799;31
2022/11/18 08:54:22;;;;;;;;;;;0.10;99.90;;;;;;2622183;46;19957;31
2022/11/18 08:56:57;;;;;;;;;;;0.10;99.90;;;;;;2603761;54;20705;31
2022/11/18 08:59:36;;;;;;;;;;;0.10;99.90;;;;;;2603498;54;20706;31
2022/11/18 09:02:14;;;;;;;;;;;0.00;99.90;;;;;;2622453;46;20891;31
2022/11/18 09:04:49;;;;;;;;;;;0.00;99.90;;;;;;2611505;46;19949;31
2022/11/18 09:07:23;;;;;;;;;;;0.00;99.90;;;;;;2617276;46;20692;31
2022/11/18 09:09:58;;;;;;;;;;;0.00;99.90;;;;;;2622220;46;19934;31
2022/11/18 09:12:33;;;;;;;;;;;0.00;99.90;;;;;;2603827;54;20799;31
2022/11/18 09:15:11;;;;;;;;;;;0.00;99.90;;;;;;2622182;46;19934;31
2022/11/18 09:17:48;;;;;;;;;;;0.00;99.90;;;;;;2603908;54;19943;31
2022/11/18 09:20:26;;;;;;;;;;;0.00;99.90;;;;;;2604006;54;20785;31
2022/11/18 09:23:00;;;;;;;;;;;0.00;99.90;;;;;;2614637;46;19950;31
2022/11/18 09:25:38;;;;;;;;;;;0.00;99.90;;;;;;2622439;46;19934;31
2022/11/18 09:28:15;;;;;;;;;;;0.00;99.90;;;;;;2622155;46;20783;31
2022/11/18 09:30:51;;;;;;;;;;;0.10;99.90;;;;;;2622243;46;19941;31
2022/11/18 09:33:29;;;;;;;;;;;0.10;99.90;;;;;;2603938;54;20801;31
2022/11/18 09:36:03;;;;;;;;;;;0.10;99.90;;;;;;2622294;46;20006;31
2022/11/18 09:38:38;;;;;;;;;;;0.10;99.90;;;;;;2622459;46;19941;31
2022/11/18 09:41:17;;;;;;;;;;;0.10;99.90;;;;;;2622472;46;19950;31
2022/11/18 09:43:55;;;;;;;;;;;0.10;99.90;;;;;;2603731;54;19941;31
2022/11/18 09:46:39;;;;;;;;;;;0.10;99.90;;;;;;2622278;46;20724;31
2022/11/18 09:49:20;;;;;;;;;;;0.20;99.90;;;;;;2622311;46;19935;31
2022/11/18 09:51:54;;;;;;;;;;;1.00;99.90;;;;;;2603751;54;19943;31
2022/11/18 09:54:33;;;;;;;;;;;0.20;99.90;;;;;;2603712;54;19946;31
2022/11/18 09:57:12;;;;;;;;;;;0.20;99.90;;;;;;2603772;54;20765;31
2022/11/18 09:59:47;;;;;;;;;;;0.20;99.90;;;;;;2603478;54;20795;31
2022/11/18 10:02:24;;;;;;;;;;;0.20;99.90;;;;;;2622251;46;19986;31
2022/11/18 10:05:03;;;;;;;;;;;0.20;99.90;;;;;;2603396;54;20763;31
2022/11/18 10:07:38;;;;;;;;;;;0.20;99.90;;;;;;2603752;54;20005;31
2022/11/18 10:10:17;;;;;;;;;;;0.20;99.90;;;;;;2622051;46;20846;31
2022/11/18 10:12:52;;;;;;;;;;;0.20;99.90;;;;;;2603500;54;20804;31
2022/11/18 10:15:29;;;;;;;;;;;0.20;99.90;;;;;;2603683;54;19935;31
2022/11/18 10:18:07;;;;;;;;;;;0.20;99.90;;;;;;2603711;54;20785;31
2022/11/18 10:20:44;;;;;;;;;;;0.20;99.90;;;;;;2622219;46;19934;31
2022/11/18 10:23:21;;;;;;;;;;;0.20;99.90;;;;;;2603618;54;19993;31
2022/11/18 10:25:58;;;;;;;;;;;0.20;99.90;;;;;;2603604;54;20049;31
2022/11/18 10:28:36;;;;;;;;;;;0.20;99.90;;;;;;2603788;54;19941;31
2022/11/18 10:31:15;;;;;;;;;;;0.20;99.90;;;;;;2603754;54;19934;31
2022/11/18 10:33:49;;;;;;;;;;;0.20;99.90;;;;;;2603836;54;19934;31
2022/11/18 10:36:29;;;;;;;;;;;0.30;99.90;;;;;;2622047;46;19941;31
2022/11/18 10:39:07;;;;;;;;;;;0.30;99.90;;;;;;2603570;54;19941;31
2022/11/18 10:41:55;;;;;;;;;;;0.30;99.90;;;;;;2603503;54;19942;31
2022/11/18 10:44:50;;;;;;;;;;;0.30;99.90;;;;;;2603280;54;20770;31
2022/11/18 10:47:40;;;;;;;;;;;0.30;99.90;;;;;;2603482;54;19950;31
2022/11/18 10:50:30;;;;;;;;;;;0.20;99.90;;;;;;2603770;54;19946;31
2022/11/18 10:53:07;;;;;;;;;;;0.30;99.90;;;;;;2603683;54;19931;31
2022/11/18 10:55:42;;;;;;;;;;;0.30;99.90;;;;;;2621948;46;19942;31
2022/11/18 10:58:17;;;;;;;;;;;0.30;99.90;;;;;;2603367;54;20852;31
2022/11/18 11:00:52;;;;;;;;;;;0.40;99.90;;;;;;2603499;54;19938;31
2022/11/18 11:03:26;;;;;;;;;;;0.40;99.90;;;;;;2621826;46;19947;31
2022/11/18 11:06:21;;;;;;;;;;;0.40;99.90;;;;;;2603760;54;19957;31
2022/11/18 11:08:59;;;;;;;;;;;0.40;99.90;;;;;;2622075;46;19939;31
2022/11/18 11:11:32;;;;;;;;;;;0.40;99.90;;;;;;2621613;46;20017;31
2022/11/18 11:14:09;;;;;;;;;;;0.40;99.90;;;;;;2603538;54;20730;31
2022/11/18 11:16:43;;;;;;;;;;;0.30;99.90;;;;;;2603360;54;19942;31
2022/11/18 11:19:19;;;;;;;;;;;0.30;99.90;;;;;;2603619;54;19940;31
2022/11/18 11:21:53;;;;;;;;;;;0.30;99.90;;;;;;2603546;54;19938;31
2022/11/18 11:24:34;;;;;;;;;;;0.20;99.90;;;;;;2603520;54;19940;31
2022/11/18 11:27:13;;;;;;;;;;;0.20;99.90;;;;;;2603410;54;20010;31
2022/11/18 11:30:10;;;;;;;;;;;0.20;99.90;;;;;;2621906;46;20740;31
2022/11/18 11:33:04;;;;;;;;;;;0.20;99.90;;;;;;2622000;46;19941;31
2022/11/18 11:35:40;;;;;;;;;;;0.20;99.90;;;;;;2603422;54;19935;31
2022/11/18 11:38:15;;;;;;;;;;;0.20;99.90;;;;;;2617952;46;19946;31
2022/11/18 11:40:56;;;;;;;;;;;0.20;99.90;;;;;;2621547;46;19938;31
2022/11/18 11:43:34;;;;;;;;;;;0.20;99.90;;;;;;2603596;54;19960;31
2022/11/18 11:46:12;;;;;;;;;;;0.20;99.90;;;;;;2603579;54;19957;31
2022/11/18 11:48:51;;;;;;;;;;;0.20;99.90;;;;;;2603526;54;19934;31
2022/11/18 11:51:30;;;;;;;;;;;0.20;99.90;;;;;;2603251;54;20801;31
2022/11/18 11:54:11;;;;;;;;;;;0.20;99.90;;;;;;2621812;46;19941;31
2022/11/18 11:56:51;;;;;;;;;;;0.20;99.90;;;;;;2603375;54;19941;31
2022/11/18 11:59:27;;;;;;;;;;;0.30;99.90;;;;;;2621660;47;19990;31
2022/11/18 12:02:18;;;;;;;;;;;0.30;99.90;;;;;;2621592;47;19935;31
2022/11/18 12:04:58;;;;;;;;;;;0.30;99.90;;;;;;2603427;54;20671;31
2022/11/18 12:07:34;;;;;;;;;;;0.30;99.90;;;;;;2621513;47;20729;31
2022/11/18 12:10:19;;;;;;;;;;;0.30;99.90;;;;;;2603574;54;19938;31
2022/11/18 12:13:00;;;;;;;;;;;0.30;99.90;;;;;;2603088;54;19942;31
2022/11/18 12:15:38;;;;;;;;;;;0.20;99.90;;;;;;2603277;54;20747;31
2022/11/18 12:18:13;;;;;;;;;;;0.20;99.90;;;;;;2603245;54;20784;31
2022/11/18 12:20:50;;;;;;;;;;;0.20;99.90;;;;;;2603452;54;19958;31
2022/11/18 12:23:28;;;;;;;;;;;0.20;99.90;;;;;;2603626;54;19946;31
2022/11/18 12:26:03;;;;;;;;;;;0.20;99.90;;;;;;2622649;46;20686;31
2022/11/18 12:28:40;;;;;;;;;;;0.20;99.90;;;;;;2604150;54;19954;31
2022/11/18 12:31:29;;;;;;;;;;;0.20;99.90;;;;;;2604212;54;19961;31
2022/11/18 12:34:20;;;;;;;;;;;0.10;99.90;;;;;;2622190;46;20761;31
2022/11/18 12:36:55;;;;;;;;;;;0.10;99.90;;;;;;2603680;54;19958;31
2022/11/18 12:39:47;;;;;;;;;;;0.10;99.90;;;;;;2622390;46;20754;31
2022/11/18 12:45:38;;;;;;;;;;;0.10;99.90;;;;;;2603732;54;19935;31
2022/11/18 12:48:28;;;;;;;;;;;0.10;99.90;;;;;;2603680;54;20815;31
2022/11/18 12:51:10;;;;;;;;;;;0.00;99.90;;;;;;2603628;54;20029;31
2022/11/18 12:53:45;;;;;;;;;;;0.00;99.90;;;;;;2622289;46;19990;31
2022/11/18 12:56:24;;;;;;;;;;;-0.10;99.90;;;;;;2622307;46;19942;31
2022/11/18 12:58:58;;;;;;;;;;;0.00;99.90;;;;;;2622203;46;19993;31
2022/11/18 13:01:34;;;;;;;;;;;-0.10;99.90;;;;;;2603775;54;19934;31
2022/11/18 13:04:08;;;;;;;;;;;-0.10;99.90;;;;;;2603873;54;20062;31
2022/11/18 13:06:46;;;;;;;;;;;-0.10;99.90;;;;;;2622367;46;19934;31
2022/11/18 13:09:23;;;;;;;;;;;-0.20;99.90;;;;;;2603971;54;19985;31
2022/11/18 13:11:58;;;;;;;;;;;-0.20;99.90;;;;;;2603870;54;19943;31
2022/11/18 13:20:26;;;;;;;;;;;-0.20;99.90;;;;;;2604026;54;20025;31
2022/11/18 13:25:53;;;;;;;;;;;-0.20;99.90;;;;;;2603739;54;19942;31
2022/11/18 13:28:27;;;;;;;;;;;-0.30;99.90;;;;;;2622081;46;20071;31
2022/11/18 13:31:03;;;;;;;;;;;-0.30;99.90;;;;;;2603656;54;19934;31
2022/11/18 13:33:40;;;;;;;;;;;-0.30;99.90;;;;;;2603755;54;20729;31
2022/11/18 13:36:19;;;;;;;;;;;-0.30;99.90;;;;;;2622451;47;19942;31
2022/11/18 13:41:46;;;;;;;;;;;-0.40;99.90;;;;;;2621914;46;20795;31
2022/11/18 13:44:23;;;;;;;;;;;-0.40;99.90;;;;;;2622261;46;19942;31
2022/11/18 13:46:57;;;;;;;;;;;-0.50;99.90;;;;;;2622250;46;19934;31
2022/11/18 13:49:35;;;;;;;;;;;-0.50;99.90;;;;;;2622400;46;20087;31
2022/11/18 13:52:10;;;;;;;;;;;-0.50;99.90;;;;;;2622297;46;19934;31
2022/11/18 13:54:47;;;;;;;;;;;-0.60;99.90;;;;;;2622255;46;20001;31
2022/11/18 13:57:22;;;;;;;;;;;-0.60;99.90;;;;;;2603603;54;19981;31
2022/11/18 13:59:59;;;;;;;;;;;-0.60;99.90;;;;;;2622104;46;20013;31
2022/11/18 14:02:44;;;;;;;;;;;-0.60;99.90;;;;;;2603477;54;20807;31
2022/11/18 14:05:19;;;;;;;;;;;-0.60;99.90;;;;;;2603620;54;19942;31
2022/11/18 14:08:02;;;;;;;;;;;-0.60;99.90;;;;;;2603473;54;20797;31
2022/11/18 14:10:42;;;;;;;;;;;-0.50;99.90;;;;;;2702169;39;22199;31
2022/11/18 14:13:19;;;;;;;;;;;-0.50;99.90;;;;;;2602853;54;19951;31
2022/11/18 14:15:54;;;;;;;;;;;-0.50;99.90;;;;;;2602922;54;20750;31
2022/11/18 14:18:33;;;;;;;;;;;-0.50;99.90;;;;;;2603542;54;19934;31
2022/11/18 14:21:08;;;;;;;;;;;-0.50;99.90;;;;;;2603663;54;19935;31
2022/11/18 14:23:44;;;;;;;;;;;-0.50;99.90;;;;;;2603846;54;19957;31
2022/11/18 14:26:21;;;;;;;;;;;-0.50;99.90;;;;;;2603592;54;20779;31
2022/11/18 14:28:57;;;;;;;;;;;-0.60;99.90;;;;;;2603494;54;20751;31
2022/11/18 14:31:32;;;;;;;;;;;-0.60;99.90;;;;;;2621693;46;20668;31
2022/11/18 14:34:18;;;;;;;;;;;-0.20;99.90;;;;;;2603519;54;19942;31
2022/11/18 14:36:53;;;;;;;;;;;0.20;99.90;;;;;;2603711;54;19934;31
2022/11/18 14:39:27;;;;;;;;;;;0.60;99.90;;;;;;2603584;54;20766;31
2022/11/18 14:42:04;;;;;;;;;;;0.90;99.90;;;;;;2622429;46;20745;31
2022/11/18 14:44:40;;;;;;;;;;;0.90;99.90;;;;;;2603659;54;20723;31
2022/11/18 14:47:17;;;;;;;;;;;1.00;99.90;;;;;;2621917;46;19935;31
2022/11/18 14:49:51;;;;;;;;;;;0.90;99.90;;;;;;2602756;54;20736;31
2022/11/18 14:52:25;;;;;;;;;;;0.80;99.90;;;;;;2603585;54;19942;31
2022/11/18 14:55:00;;;;;;;;;;;0.70;99.90;;;;;;2603769;54;19934;31
2022/11/18 14:57:36;;;;;;;;;;;0.60;99.90;;;;;;2603782;54;19960;31
2022/11/18 15:00:13;;;;;;;;;;;0.50;99.90;;;;;;2603173;54;20020;31
2022/11/18 15:02:46;;;;;;;;;;;0.40;99.90;;;;;;2603535;54;19934;31
2022/11/18 15:05:20;;;;;;;;;;;0.30;99.90;;;;;;2603711;54;19961;31
2022/11/18 15:07:54;;;;;;;;;;;0.20;99.90;;;;;;2621994;46;20013;31
2022/11/18 15:10:28;;;;;;;;;;;0.20;99.90;;;;;;2603707;54;20749;31
2022/11/18 15:13:05;;;;;;;;;;;0.10;99.90;;;;;;2621985;46;19941;31
2022/11/18 15:15:38;;;;;;;;;;;0.10;99.90;;;;;;2603768;54;19942;31
2022/11/18 15:18:12;;;;;;;;;;;0.00;99.90;;;;;;2603596;54;19961;31
2022/11/18 15:20:46;;;;;;;;;;;0.00;99.90;;;;;;2603663;54;19989;31
2022/11/18 15:23:20;;;;;;;;;;;0.00;99.90;;;;;;2603569;54;20490;31
2022/11/18 15:26:01;;;;;;;;;;;-0.10;99.90;;;;;;2603399;54;20797;31
2022/11/18 15:28:38;;;;;;;;;;;0.00;99.90;;;;;;2622116;46;19961;31
2022/11/18 15:31:11;;;;;;;;;;;0.00;99.90;;;;;;2603830;54;20009;31
2022/11/18 15:33:45;;;;;;;;;;;0.00;99.90;;;;;;2603331;54;19946;31
2022/11/18 15:36:20;;;;;;;;;;;-0.10;99.90;;;;;;2622056;46;20002;31
2022/11/18 15:41:25;;;;;;;;;;;-0.10;99.90;;;;;;2603583;54;19946;31
2022/11/18 15:44:01;;;;;;;;;;;-0.20;99.90;;;;;;2603320;54;20004;31
2022/11/18 15:46:35;;;;;;;;;;;-0.10;99.90;;;;;;2603366;54;19941;31
2022/11/18 15:49:07;;;;;;;;;;;-0.10;99.90;;;;;;2773592;31;22169;31
2022/11/18 15:51:42;;;;;;;;;;;-0.10;99.90;;;;;;2603364;54;19946;31
2022/11/18 15:54:16;;;;;;;;;;;-0.10;99.90;;;;;;2621905;46;20033;31
2022/11/18 15:56:50;;;;;;;;;;;-0.10;99.90;;;;;;2603499;54;19974;31
2022/11/18 15:59:27;;;;;;;;;;;-0.10;99.90;;;;;;2604954;54;20880;31
2022/11/18 16:02:00;;;;;;;;;;;-0.10;99.90;;;;;;2623732;46;20737;31
2022/11/18 16:04:34;;;;;;;;;;;-0.10;99.90;;;;;;2605073;54;19961;31
2022/11/18 16:07:08;;;;;;;;;;;-0.20;99.90;;;;;;2623689;46;19961;31
2022/11/18 16:18:03;;;;;;;;;;;-0.20;99.90;;;;;;2605259;54;19941;31
2022/11/18 16:20:37;;;;;;;;;;;-0.20;99.90;;;;;;2623621;46;19935;31